Time;durP1;ratioP1;P1;durP2;ratioP2;P2;SDS_P1;SDS_P2;PMS_P1;PMS_P2;Temp;Humidity;BMP_temperature;BMP_pressure;BME280_temperature;BME280_humidity;BME280_pressure;Samples;Min_cycle;Max_cycle;Signal;HPM_P1;HPM_P2
2021/06/15 00:02:20;;;;;;;14.07;9.07;;;;;;;20.82;87.93;101176.69;4995453;28;20030;-74
2021/06/15 00:04:45;;;;;;;21.58;9.30;;;;;;;20.73;88.45;101183.88;4987322;28;20046;-75
2021/06/15 00:07:11;;;;;;;20.75;9.18;;;;;;;20.96;87.28;101181.22;4990833;28;20125;-74
2021/06/15 00:09:36;;;;;;;19.25;9.77;;;;;;;21.01;86.70;101186.25;4977783;28;20022;-74
2021/06/15 00:12:03;;;;;;;17.52;9.93;;;;;;;20.82;87.59;101176.69;4983777;28;20049;-75
2021/06/15 00:14:29;;;;;;;18.40;9.93;;;;;;;20.74;88.48;101174.44;4967448;28;20168;-75
2021/06/15 00:16:54;;;;;;;26.98;10.18;;;;;;;20.60;89.21;101189.88;4992939;28;20030;-75
2021/06/15 00:19:20;;;;;;;18.42;9.43;;;;;;;20.65;89.16;101185.91;4993018;28;20042;-74
2021/06/15 00:21:46;;;;;;;16.67;9.63;;;;;;;20.68;88.67;101188.59;4984436;28;20040;-74
2021/06/15 00:24:11;;;;;;;18.70;10.23;;;;;;;;;;4992245;28;20030;-74
2021/06/15 00:26:37;;;;;;;21.67;9.32;;;;;;;20.63;89.25;101191.03;4988765;28;20041;-74
2021/06/15 00:29:03;;;;;;;16.15;8.85;;;;;;;20.54;89.67;101186.03;4967859;28;20026;-75
2021/06/15 00:31:28;;;;;;;21.63;9.70;;;;;;;20.61;88.67;101179.72;4985430;28;20034;-75
2021/06/15 00:33:55;;;;;;;22.48;9.48;;;;;;;20.58;88.94;101181.28;4984104;28;20045;-74
2021/06/15 00:36:20;;;;;;;17.95;9.65;;;;;;;20.61;88.34;101183.19;4975664;28;20096;-74
2021/06/15 00:38:46;;;;;;;20.52;8.50;;;;;;;20.45;89.39;101174.03;4992003;28;20034;-74
2021/06/15 00:41:12;;;;;;;16.63;8.68;;;;;;;20.31;90.26;101185.13;4987712;28;20035;-74
2021/06/15 00:43:38;;;;;;;16.25;8.05;;;;;;;20.27;90.45;101190.63;4975932;28;20040;-74
2021/06/15 00:46:03;;;;;;;21.08;8.25;;;;;;;20.13;90.68;101193.47;4965491;28;20093;-74
2021/06/15 00:48:34;;;;;;;17.98;7.55;;;;;;;20.03;91.35;101199.06;4975243;28;20030;-75
2021/06/15 00:51:03;;;;;;;16.38;8.10;;;;;;;20.26;90.54;101191.06;4975514;28;20499;-74
2021/06/15 00:53:29;;;;;;;14.43;7.85;;;;;;;20.12;90.70;101183.75;4992562;28;20374;-74
2021/06/15 00:55:57;;;;;;;17.80;7.70;;;;;;;19.94;91.67;101196.03;4987859;28;20121;-74
2021/06/15 00:58:23;;;;;;;16.48;8.02;;;;;;;19.93;92.09;101192.53;4975507;28;20041;-74
2021/06/15 01:00:49;;;;;;;15.25;7.28;;;;;;;19.99;91.29;101190.13;4974052;28;20026;-74
2021/06/15 01:03:16;;;;;;;14.88;7.55;;;;;;;19.88;92.44;101189.47;4975645;28;20018;-74
2021/06/15 01:05:43;;;;;;;9.98;7.35;;;;;;;20.03;91.36;101193.59;4989066;28;20113;-74
2021/06/15 01:08:31;;;;;;;22.00;7.75;;;;;;;20.13;90.96;101193.47;4973732;28;20065;-74
2021/06/15 01:11:03;;;;;;;12.73;7.10;;;;;;;19.85;91.29;101196.50;4975040;28;20074;-74
2021/06/15 01:13:40;;;;;;;13.32;6.70;;;;;;;19.71;92.51;101191.94;4992996;28;20053;-74
2021/06/15 01:16:56;;;;;;;14.27;6.85;;;;;;;19.51;93.15;101190.91;4974855;28;20165;-74
2021/06/15 01:19:49;;;;;;;15.07;6.47;;;;;;;19.72;93.13;101198.94;4938950;28;20456;-75
2021/06/15 01:22:44;;;;;;;12.70;6.03;;;;;;;19.55;93.70;101202.59;4963496;28;20025;-74
2021/06/15 01:25:12;;;;;;;12.70;6.38;;;;;;;19.69;93.43;101209.91;4992058;28;20034;-74
2021/06/15 01:27:47;;;;;;;13.57;6.25;;;;;;;19.73;92.22;101203.25;4993110;28;20392;-74
2021/06/15 01:30:16;;;;;;;11.07;6.75;;;;;;;19.45;93.27;101206.16;4974436;28;20042;-74
2021/06/15 01:32:53;;;;;;;17.08;7.63;;;;;;;19.58;92.51;101199.06;4975091;28;20035;-74
2021/06/15 01:35:23;;;;;;;19.65;9.68;;;;;;;19.48;92.75;101199.91;4958991;28;20038;-74
2021/06/15 01:37:59;;;;;;;24.40;11.20;;;;;;;19.46;92.87;101204.22;4992481;28;20066;-74
2021/06/15 01:40:33;;;;;;;20.65;12.05;;;;;;;19.37;93.35;101196.50;4990740;28;20035;-75
2021/06/15 01:43:13;;;;;;;17.92;9.95;;;;;;;19.47;92.95;101192.13;4991200;28;20034;-74
2021/06/15 01:45:45;;;;;;;19.13;10.05;;;;;;;19.42;93.15;101192.53;4974752;28;20088;-75
2021/06/15 01:48:12;;;;;;;18.40;8.88;;;;;;;19.43;92.79;101194.91;4975344;28;20034;-75
2021/06/15 01:50:43;;;;;;;17.88;8.82;;;;;;;19.42;93.48;101209.72;4990748;28;20092;-74
2021/06/15 01:53:15;;;;;;;19.65;8.52;;;;;;;19.51;93.18;101198.34;4975397;28;20045;-74
2021/06/15 01:55:47;;;;;;;18.50;7.50;;;;;;;19.53;92.81;101202.22;4974290;28;20034;-74
2021/06/15 01:58:15;;;;;;;14.75;7.05;;;;;;;19.68;92.34;101202.91;4991952;28;20045;-74
2021/06/15 02:00:42;;;;;;;11.63;6.63;;;;;;;19.71;91.93;101197.41;4991608;28;20092;-74
2021/06/15 02:03:10;;;;;;;17.08;7.00;;;;;;;19.54;92.23;101198.31;4991824;28;20030;-74
2021/06/15 02:05:51;;;;;;;16.48;6.07;;;;;;;19.52;93.00;101189.75;4974050;28;20034;-74
2021/06/15 02:08:28;;;;;;;15.15;6.38;;;;;;;19.55;92.39;101183.47;4957203;28;20118;-74
2021/06/15 02:10:58;;;;;;;11.50;5.60;;;;;;;19.59;91.91;101200.59;4958537;28;20080;-74
2021/06/15 02:13:41;;;;;;;13.30;5.80;;;;;;;19.49;92.17;101198.72;4970492;28;20034;-75
2021/06/15 02:16:27;;;;;;;13.95;5.63;;;;;;;19.44;93.13;101207.38;4988799;28;20072;-74
2021/06/15 02:19:17;;;;;;;15.40;5.15;;;;;;;19.50;93.04;101216.69;4970242;28;20034;-75
2021/06/15 02:21:54;;;;;;;13.63;5.50;;;;;;;19.65;91.72;101214.63;4973272;28;20034;-74
2021/06/15 02:24:24;;;;;;;12.70;5.80;;;;;;;19.50;92.50;101213.97;4965803;28;20037;-74
2021/06/15 02:26:51;;;;;;;17.60;5.68;;;;;;;19.56;92.53;101219.78;4973625;28;20110;-74
2021/06/15 02:29:17;;;;;;;14.93;5.88;;;;;;;19.56;92.40;101227.97;4957650;28;20081;-74
2021/06/15 02:31:52;;;;;;;15.73;6.38;;;;;;;19.49;92.69;101233.50;4968031;28;20441;-74
2021/06/15 02:34:21;;;;;;;12.68;5.50;;;;;;;19.60;92.22;101232.25;4989944;28;20070;-74
2021/06/15 02:36:53;;;;;;;14.60;5.22;;;;;;;19.57;92.95;101251.38;4964924;28;20052;-75
2021/06/15 02:39:34;;;;;;;10.07;5.55;;;;;;;19.78;92.23;101246.53;4962095;28;20030;-74
2021/06/15 02:42:07;;;;;;;11.75;6.10;;;;;;;19.82;90.99;101251.22;4991445;28;20034;-74
2021/06/15 02:44:38;;;;;;;13.88;5.38;;;;;;;19.72;91.06;101250.88;4987259;28;20030;-75
2021/06/15 02:47:07;;;;;;;13.25;5.50;;;;;;;19.85;90.36;101256.66;4960994;28;20038;-74
2021/06/15 02:49:41;;;;;;;16.40;5.60;;;;;;;19.79;90.58;101250.84;4956476;28;20045;-74
2021/06/15 02:52:31;;;;;;;16.73;5.55;;;;;;;19.60;90.73;101245.91;4970091;28;20038;-75
2021/06/15 02:55:01;;;;;;;13.68;4.75;;;;;;;19.60;91.52;101251.38;4990037;28;20131;-74
2021/06/15 02:57:29;;;;;;;11.38;5.25;;;;;;;19.57;91.30;101263.09;4973032;28;20030;-74
2021/06/15 02:59:58;;;;;;;18.80;5.13;;;;;;;19.75;89.93;101252.81;4971766;28;20038;-74
2021/06/15 03:02:25;;;;;;;13.40;4.57;;;;;;;19.67;90.49;101262.25;4984358;28;20104;-74
2021/06/15 03:04:51;;;;;;;16.85;5.70;;;;;;;19.62;90.79;101257.22;4989586;28;20113;-74
2021/06/15 03:07:17;;;;;;;12.98;4.80;;;;;;;19.64;91.00;101262.28;4973169;28;20035;-74
2021/06/15 03:09:45;;;;;;;13.07;4.93;;;;;;;19.84;89.70;101266.03;4989768;28;20027;-74
2021/06/15 03:12:24;;;;;;;19.23;5.50;;;;;;;19.78;89.08;101271.13;4984328;28;20077;-75
2021/06/15 03:14:59;;;;;;;14.80;5.88;;;;;;;19.79;89.36;101267.25;4990096;28;20551;-74
2021/06/15 03:17:27;;;;;;;12.85;5.15;;;;;;;19.91;88.36;101276.91;4978838;28;20039;-74
2021/06/15 03:20:05;;;;;;;20.40;6.07;;;;;;;20.13;86.44;101281.00;4969215;28;20141;-74
2021/06/15 03:22:53;;;;;;;21.35;5.45;;;;;;;19.91;87.71;101278.88;4973318;28;20034;-74
2021/06/15 03:25:25;;;;;;;17.75;5.88;;;;;;;19.76;88.60;101272.75;4968807;28;20756;-74
2021/06/15 03:27:59;;;;;;;11.68;5.10;;;;;;;19.78;88.29;101278.59;4981755;28;20082;-74
2021/06/15 03:30:28;;;;;;;13.60;5.47;;;;;;;19.83;88.26;101286.34;4985782;28;20475;-74
2021/06/15 03:32:59;;;;;;;21.90;5.85;;;;;;;20.02;85.80;101291.28;4985593;28;20069;-74
2021/06/15 03:35:28;;;;;;;17.10;5.18;;;;;;;19.84;86.40;101293.34;4987844;28;20113;-73
2021/06/15 03:37:58;;;;;;;13.60;5.22;;;;;;;19.73;87.15;101296.19;4981780;28;20063;-73
2021/06/15 03:40:25;;;;;;;18.58;5.13;;;;;;;19.69;87.54;101294.63;4975294;28;20490;-73
2021/06/15 03:42:52;;;;;;;16.40;5.00;;;;;;;19.64;87.77;101293.13;4977739;28;20031;-73
2021/06/15 03:45:23;;;;;;;12.80;4.28;;;;;;;19.37;89.27;101294.06;4977261;28;20022;-74
2021/06/15 03:47:50;;;;;;;15.57;4.23;;;;;;;19.33;89.20;101302.28;4977803;28;20033;-73
2021/06/15 03:50:17;;;;;;;13.15;4.40;;;;;;;19.38;88.51;101304.59;4989449;28;20061;-73
2021/06/15 03:52:45;;;;;;;17.40;3.65;;;;;;;19.52;87.05;101299.06;4986532;28;20122;-73
2021/06/15 03:55:13;;;;;;;11.02;3.00;;;;;;;19.61;85.55;101309.53;4980005;28;20038;-73
2021/06/15 03:57:42;;;;;;;11.00;3.13;;;;;;;19.54;85.07;101304.91;4986214;28;20073;-74
2021/06/15 04:00:19;;;;;;;11.13;3.55;;;;;;;19.36;86.00;101300.69;4989079;28;20069;-73
2021/06/15 04:02:47;;;;;;;9.48;2.85;;;;;;;19.48;85.27;101295.56;4977203;28;20030;-73
2021/06/15 04:05:16;;;;;;;12.30;3.20;;;;;;;19.45;85.65;101299.06;4984997;28;20034;-73
2021/06/15 04:07:44;;;;;;;11.02;3.28;;;;;;;19.47;85.28;101296.72;4990468;28;20026;-73
2021/06/15 04:10:12;;;;;;;12.85;3.38;;;;;;;19.35;86.25;101294.47;4974453;28;20034;-73
2021/06/15 04:12:38;;;;;;;9.88;3.30;;;;;;;19.38;85.26;101295.59;4976431;28;20042;-73
2021/06/15 04:15:07;;;;;;;9.77;2.83;;;;;;;19.39;85.26;101294.44;4982138;28;20030;-73
2021/06/15 04:17:45;;;;;;;13.80;3.00;;;;;;;19.27;85.53;101306.56;4993229;28;20463;-73
2021/06/15 04:20:12;;;;;;;10.18;3.15;;;;;;;19.26;86.09;101315.16;4992949;28;20102;-73
2021/06/15 04:22:44;;;;;;;6.63;2.72;;;;;;;19.23;86.16;101314.00;4981497;28;20145;-73
2021/06/15 04:25:11;;;;;;;9.60;2.85;;;;;;;19.13;86.74;101314.81;4951125;28;20050;-73
2021/06/15 04:27:37;;;;;;;12.55;3.17;;;;;;;18.92;87.22;101320.34;4978122;28;20034;-73
2021/06/15 04:30:07;;;;;;;12.13;2.80;;;;;;;19.05;87.14;101326.19;4989599;28;20085;-73
2021/06/15 04:32:56;;;;;;;16.02;3.22;;;;;;;19.25;86.04;101333.50;4967974;28;20089;-73
2021/06/15 04:35:30;;;;;;;9.85;2.55;;;;;;;19.32;85.56;101340.88;4985186;28;20030;-73
2021/06/15 04:38:01;;;;;;;8.20;2.63;;;;;;;19.24;85.62;101351.06;4983495;28;20037;-73
2021/06/15 04:40:36;;;;;;;7.50;2.40;;;;;;;19.33;84.27;101362.38;4979670;28;20034;-73
2021/06/15 04:43:18;;;;;;;12.32;2.60;;;;;;;19.37;83.73;101356.91;4986240;28;20224;-73
2021/06/15 04:45:45;;;;;;;12.65;2.30;;;;;;;19.44;82.88;101367.78;4968720;28;20062;-73
2021/06/15 04:48:20;;;;;;;7.72;2.40;;;;;;;19.42;82.12;101368.19;4977926;28;20033;-73
2021/06/15 04:50:47;;;;;;;9.43;2.30;;;;;;;19.30;82.04;101376.78;4988640;28;20030;-73
2021/06/15 04:53:15;;;;;;;9.77;2.35;;;;;;;19.33;82.21;101373.31;4983961;28;20042;-73
2021/06/15 04:55:42;;;;;;;6.82;2.17;;;;;;;19.20;82.49;101374.88;4980080;28;20042;-74
2021/06/15 04:58:09;;;;;;;8.75;2.85;;;;;;;19.12;83.26;101376.09;4978693;28;20042;-73
2021/06/15 05:00:36;;;;;;;7.20;2.20;;;;;;;18.79;84.98;101376.56;4979029;28;20108;-73
2021/06/15 05:03:04;;;;;;;6.85;2.17;;;;;;;18.74;84.10;101388.63;4979325;28;20030;-73
2021/06/15 05:05:30;;;;;;;9.23;2.55;;;;;;;18.89;83.71;101378.50;4985304;28;20030;-73
2021/06/15 05:08:17;;;;;;;8.45;2.17;;;;;;;18.78;83.54;101374.97;4984585;28;20122;-73
2021/06/15 05:10:45;;;;;;;9.27;2.38;;;;;;;18.77;84.10;101367.97;4980970;28;20034;-73
2021/06/15 05:13:12;;;;;;;9.95;1.95;;;;;;;18.71;84.06;101375.00;4983801;28;20423;-73
2021/06/15 05:15:42;;;;;;;12.10;2.13;;;;;;;18.88;82.60;101374.97;4985736;28;20038;-73
2021/06/15 05:18:08;;;;;;;9.23;2.20;;;;;;;18.64;83.76;101361.38;4989909;28;20566;-73
2021/06/15 05:20:34;;;;;;;6.80;2.22;;;;;;;18.51;85.54;101365.66;4990890;28;20060;-73
2021/06/15 05:23:14;;;;;;;7.20;2.03;;;;;;;18.44;84.96;101365.66;4985107;28;20042;-73
2021/06/15 05:25:41;;;;;;;9.80;1.85;;;;;;;18.81;82.35;101364.03;4982132;28;20030;-73
2021/06/15 05:28:07;;;;;;;7.38;2.40;;;;;;;18.66;82.21;101361.75;4984437;28;20046;-73
2021/06/15 05:30:32;;;;;;;11.77;2.03;;;;;;;18.41;84.19;101374.56;4988743;28;20031;-73
2021/06/15 05:32:58;;;;;;;7.97;2.13;;;;;;;18.50;84.78;101370.34;4985805;28;20041;-73
2021/06/15 05:35:24;;;;;;;8.68;2.03;;;;;;;18.64;83.44;101364.84;4988718;28;20034;-73
2021/06/15 05:37:50;;;;;;;4.18;2.10;;;;;;;18.72;81.98;101384.72;4985529;28;20038;-74
2021/06/15 05:40:17;;;;;;;9.40;2.00;;;;;;;18.77;81.12;101387.88;4975805;28;20510;-75
2021/06/15 05:42:42;;;;;;;13.10;2.10;;;;;;;18.81;81.00;101398.78;4977011;28;20114;-75
2021/06/15 05:45:09;;;;;;;9.43;1.88;;;;;;;18.92;79.61;101397.59;4990278;28;20121;-75
2021/06/15 05:47:36;;;;;;;7.78;1.80;;;;;;;18.78;79.69;101396.81;4989350;28;20034;-74
2021/06/15 05:50:06;;;;;;;8.77;1.83;;;;;;;18.92;80.25;101407.72;4986874;28;20050;-74
2021/06/15 05:52:32;;;;;;;12.27;2.40;;;;;;;19.04;79.41;101407.31;4986367;28;20034;-75
2021/06/15 05:54:59;;;;;;;5.97;1.77;;;;;;;18.99;79.18;101401.47;4992135;28;20053;-75
2021/06/15 05:57:26;;;;;;;7.75;1.88;;;;;;;18.80;79.86;101400.72;4991140;28;20437;-74
2021/06/15 05:59:52;;;;;;;9.95;2.10;;;;;;;18.86;79.63;101401.88;4984717;28;20042;-74
2021/06/15 06:02:17;;;;;;;12.25;2.00;;;;;;;19.36;78.07;101418.16;4991063;28;20042;-74
2021/06/15 06:05:08;;;;;;;5.70;1.98;;;;;;;19.50;77.73;101427.13;4971589;28;20499;-74
2021/06/15 06:10:17;;;;;;;6.47;1.98;;;;;;;19.49;76.48;101414.59;4988313;28;20041;-74
2021/06/15 06:12:42;;;;;;;6.55;1.90;;;;;;;19.57;76.46;101418.09;4989187;28;20042;-74
2021/06/15 06:15:11;;;;;;;7.45;1.88;;;;;;;19.64;78.02;101421.59;4979621;23;20018;-73
2021/06/15 06:17:40;;;;;;;7.55;1.95;;;;;;;19.65;75.63;101409.47;4980433;28;20042;-74
2021/06/15 06:20:07;;;;;;;8.07;1.65;;;;;;;19.54;73.67;101419.69;4980742;28;20042;-74
2021/06/15 06:22:34;;;;;;;8.93;1.80;;;;;;;19.67;72.89;101426.25;4989988;28;20116;-74
2021/06/15 06:25:05;;;;;;;7.50;1.80;;;;;;;19.71;73.51;101426.22;4989430;28;20046;-74
2021/06/15 06:27:31;;;;;;;5.75;1.52;;;;;;;19.90;73.22;101420.28;4971959;28;20039;-74
2021/06/15 06:29:56;;;;;;;13.27;1.80;;;;;;;20.04;71.46;101422.16;4969541;28;20105;-74
2021/06/15 06:32:22;;;;;;;8.57;1.63;;;;;;;20.06;70.60;101431.53;4963363;28;20454;-73
2021/06/15 06:34:47;;;;;;;7.60;1.70;;;;;;;19.96;70.79;101443.28;4966961;28;20116;-74
2021/06/15 06:37:13;;;;;;;6.68;1.63;;;;;;;20.10;70.71;101434.22;4959517;28;20118;-73
2021/06/15 06:39:39;;;;;;;12.48;1.70;;;;;;;20.41;70.97;101441.47;4969144;28;20038;-73
2021/06/15 06:42:05;;;;;;;6.55;1.70;;;;;;;20.82;69.84;101436.84;4974004;28;20038;-73
2021/06/15 06:44:30;;;;;;;9.23;1.58;;;;;;;21.31;67.29;101439.13;4979043;28;20034;-74
2021/06/15 06:46:56;;;;;;;6.65;1.50;;;;;;;21.81;66.34;101442.09;4961236;28;20031;-74
2021/06/15 06:49:22;;;;;;;5.60;1.70;;;;;;;22.06;65.13;101456.25;4971903;28;20031;-74
2021/06/15 06:51:47;;;;;;;7.93;1.40;;;;;;;22.20;62.62;101452.53;4971853;28;20745;-74
2021/06/15 06:54:12;;;;;;;7.22;1.30;;;;;;;22.33;62.84;101454.28;4974143;28;20096;-74
2021/06/15 06:56:38;;;;;;;7.68;1.50;;;;;;;22.37;63.32;101449.53;4965856;28;20035;-73
2021/06/15 06:59:06;;;;;;;7.72;1.65;;;;;;;22.39;62.68;101460.09;4963798;28;20042;-73
2021/06/15 07:01:32;;;;;;;8.00;1.30;;;;;;;22.26;61.60;101468.09;4970274;28;20027;-73
2021/06/15 07:03:58;;;;;;;6.75;1.50;;;;;;;22.11;60.84;101471.47;4966072;28;20030;-75
2021/06/15 07:06:23;;;;;;;5.60;1.27;;;;;;;21.67;64.17;101471.63;4971232;28;20517;-74
2021/06/15 07:08:48;;;;;;;7.22;1.27;;;;;;;21.80;63.55;101467.94;4962503;28;20038;-74
2021/06/15 07:11:15;;;;;;;6.97;1.35;;;;;;;22.01;63.86;101464.94;4960936;28;20041;-74
2021/06/15 07:13:40;;;;;;;7.43;1.70;;;;;;;22.33;62.00;101459.00;4970307;28;20038;-74
2021/06/15 07:16:06;;;;;;;4.32;1.40;;;;;;;22.64;62.38;101468.75;4966971;28;20089;-73
2021/06/15 07:18:35;;;;;;;5.05;1.50;;;;;;;22.79;61.67;101467.31;4962992;28;20043;-74
2021/06/15 07:21:01;;;;;;;10.63;1.73;;;;;;;23.01;62.07;101476.75;4969806;28;20065;-74
2021/06/15 07:23:27;;;;;;;6.00;1.33;;;;;;;23.27;59.64;101483.34;4975419;28;20031;-74
2021/06/15 07:25:52;;;;;;;6.40;1.30;;;;;;;23.17;59.10;101474.09;4966991;28;20484;-74
2021/06/15 07:28:18;;;;;;;7.50;1.58;;;;;;;23.31;57.67;101478.56;4967887;28;20034;-74
2021/06/15 07:30:43;;;;;;;5.57;1.30;;;;;;;23.22;57.04;101476.38;4950759;28;20027;-74
2021/06/15 07:33:09;;;;;;;12.23;1.38;;;;;;;23.20;56.54;101487.00;4972256;28;20384;-74
2021/06/15 07:35:35;;;;;;;5.10;1.13;;;;;;;23.13;56.85;101473.38;4963567;28;20559;-73
2021/06/15 07:38:01;;;;;;;4.60;1.15;;;;;;;23.05;55.54;101477.44;4969314;28;20484;-73
2021/06/15 07:40:27;;;;;;;5.22;1.05;;;;;;;22.91;56.53;101477.72;4976907;28;20030;-72
2021/06/15 07:42:55;;;;;;;6.40;1.77;;;;;;;22.98;56.42;101480.31;4974396;28;20034;-72
2021/06/15 07:45:24;;;;;;;3.78;1.20;;;;;;;22.76;55.68;101481.91;4975610;28;20034;-72
2021/06/15 07:47:49;;;;;;;3.50;1.00;;;;;;;22.89;56.21;101485.59;4971273;28;20078;-73
2021/06/15 07:50:16;;;;;;;4.97;0.95;;;;;;;22.99;54.54;101481.09;4966885;28;20042;-72
2021/06/15 07:52:43;;;;;;;6.40;1.52;;;;;;;23.14;54.06;101472.19;4975310;28;20042;-74
2021/06/15 07:55:29;;;;;;;6.28;1.20;;;;;;;23.24;55.03;101481.44;4967929;28;20069;-74
2021/06/15 07:57:54;;;;;;;7.55;1.20;;;;;;;23.29;56.35;101470.72;4895568;29;20142;-75
2021/06/15 08:00:21;;;;;;;5.63;1.00;;;;;;;23.56;54.33;101481.63;4894329;29;20401;-73
2021/06/15 08:02:47;;;;;;;5.43;1.00;;;;;;;23.79;51.71;101478.78;4894553;29;20406;-73
2021/06/15 08:05:14;;;;;;;4.25;1.02;;;;;;;23.45;51.47;101472.03;4895046;29;20127;-73
2021/06/15 08:07:39;;;;;;;2.55;0.80;;;;;;;23.73;51.62;101482.50;4890609;29;20032;-74
2021/06/15 08:10:06;;;;;;;4.43;1.20;;;;;;;23.85;53.38;101481.81;4892294;29;20045;-74
2021/06/15 08:12:31;;;;;;;10.05;1.38;;;;;;;23.80;52.69;101479.59;4889380;29;20048;-74
2021/06/15 08:14:57;;;;;;;12.00;1.75;;;;;;;23.75;54.29;101480.84;4892206;29;20033;-73
2021/06/15 08:17:23;;;;;;;6.55;1.23;;;;;;;23.70;52.02;101477.81;4892862;29;20135;-73
2021/06/15 08:19:49;;;;;;;4.85;1.25;;;;;;;23.37;53.55;101476.91;4891199;29;20078;-73
2021/06/15 08:22:14;;;;;;;6.68;1.65;;;;;;;23.54;53.78;101486.03;4894109;29;20162;-73
2021/06/15 08:24:40;;;;;;;6.18;1.38;;;;;;;23.61;54.07;101491.38;4893679;29;20039;-74
2021/06/15 08:27:05;;;;;;;11.02;1.40;;;;;;;23.83;54.49;101490.50;4893771;29;20537;-74
2021/06/15 08:29:31;;;;;;;5.82;1.15;;;;;;;23.79;51.88;101491.81;4874163;29;20051;-73
2021/06/15 08:31:57;;;;;;;7.07;0.98;;;;;;;24.15;52.52;101492.63;4899270;29;20044;-74
2021/06/15 08:34:22;;;;;;;3.85;0.93;;;;;;;24.02;52.93;101491.75;4914276;28;20464;-74
2021/06/15 08:36:48;;;;;;;4.70;1.25;;;;;;;24.10;51.29;101491.13;4966428;28;20082;-73
2021/06/15 08:39:14;;;;;;;4.35;1.48;;;;;;;23.88;52.57;101490.03;4978705;28;20039;-73
2021/06/15 08:41:39;;;;;;;7.82;1.05;;;;;;;23.87;51.93;101482.19;4968987;28;20130;-73
2021/06/15 08:44:06;;;;;;;5.28;1.20;;;;;;;23.72;51.61;101486.44;4973845;28;20041;-73
2021/06/15 08:46:32;;;;;;;5.03;1.40;;;;;;;23.86;51.46;101484.19;4967043;28;20053;-73
2021/06/15 08:49:00;;;;;;;4.18;1.17;;;;;;;24.06;50.85;101476.66;4972828;28;20030;-73
2021/06/15 08:51:25;;;;;;;4.53;1.05;;;;;;;23.95;49.93;101478.06;4968667;28;20086;-74
2021/06/15 08:54:03;;;;;;;5.65;1.00;;;;;;;24.18;51.43;101486.25;4969658;28;20038;-73
2021/06/15 08:56:32;;;;;;;4.18;1.10;;;;;;;24.45;50.52;101486.06;4968350;28;20395;-73
2021/06/15 08:59:29;;;;;;;7.30;1.25;;;;;;;24.63;50.19;101478.91;4965956;28;20030;-74
2021/06/15 09:01:58;;;;;;;7.45;1.13;;;;;;;24.60;50.88;101482.50;4972778;28;20038;-74
2021/06/15 09:04:23;;;;;;;5.88;1.27;;;;;;;24.87;51.56;101480.28;4966598;28;20058;-74
2021/06/15 09:06:50;;;;;;;5.32;1.02;;;;;;;24.90;50.04;101484.94;4948630;28;20104;-73
2021/06/15 09:09:16;;;;;;;5.07;1.33;;;;;;;25.28;48.60;101476.84;4970490;28;20023;-74
2021/06/15 09:11:51;;;;;;;3.85;1.10;;;;;;;25.37;49.01;101479.00;4971799;28;20403;-74
2021/06/15 09:14:18;;;;;;;5.53;1.05;;;;;;;25.24;48.78;101480.94;4951603;28;20026;-74
2021/06/15 09:16:46;;;;;;;4.78;1.17;;;;;;;25.64;48.26;101480.22;4965790;28;20864;-74
2021/06/15 09:19:17;;;;;;;5.35;1.10;;;;;;;25.43;48.81;101486.34;4965359;28;20042;-74
2021/06/15 09:21:44;;;;;;;7.65;1.00;;;;;;;24.98;48.71;101493.81;4968216;28;20416;-74
2021/06/15 09:24:23;;;;;;;4.20;1.10;;;;;;;24.26;48.63;101484.88;4969014;28;20043;-75
2021/06/15 09:27:02;;;;;;;5.03;1.08;;;;;;;24.28;49.33;101476.19;4969306;28;20410;-75
2021/06/15 09:29:42;;;;;;;6.25;0.90;;;;;;;24.88;48.23;101481.06;4968431;28;20430;-74
2021/06/15 09:32:20;;;;;;;5.63;1.00;;;;;;;25.21;49.33;101479.03;4971666;28;20035;-74
2021/06/15 09:34:50;;;;;;;6.20;1.15;;;;;;;25.16;47.43;101482.31;4963193;28;20042;-74
2021/06/15 09:37:16;;;;;;;5.43;0.98;;;;;;;25.67;48.69;101471.06;4968966;28;20035;-74
2021/06/15 09:39:42;;;;;;;3.67;1.10;;;;;;;25.96;48.75;101473.75;4977883;28;20125;-74
2021/06/15 09:42:12;;;;;;;6.43;1.45;;;;;;;26.19;47.86;101479.00;4972785;28;20098;-74
2021/06/15 09:44:38;;;;;;;7.15;0.95;;;;;;;26.06;47.41;101478.22;4968571;28;20046;-74
2021/06/15 09:47:06;;;;;;;6.43;1.10;;;;;;;25.98;46.77;101479.63;4966448;28;20035;-74
2021/06/15 09:49:37;;;;;;;5.00;1.00;;;;;;;26.43;47.89;101484.97;4968859;28;20391;-73
2021/06/15 09:52:20;;;;;;;3.55;1.00;;;;;;;25.94;44.98;101476.19;4967906;28;20116;-74
2021/06/15 09:54:50;;;;;;;5.28;1.15;;;;;;;25.40;46.07;101472.63;4963605;28;20042;-74
2021/06/15 09:57:21;;;;;;;5.38;1.30;;;;;;;25.80;47.13;101487.66;4962953;28;20399;-74
2021/06/15 10:00:20;;;;;;;6.00;0.80;;;;;;;25.90;46.04;101472.75;4972808;28;20023;-73
2021/06/15 10:02:57;;;;;;;8.05;1.20;;;;;;;26.11;46.27;101480.44;4944621;28;20078;-73
2021/06/15 10:05:36;;;;;;;6.38;1.30;;;;;;;26.28;45.02;101484.66;4957908;28;20119;-73
2021/06/15 10:08:07;;;;;;;2.88;0.80;;;;;;;26.68;44.01;101484.94;4954526;28;20581;-73
2021/06/15 10:10:37;;;;;;;4.28;1.17;;;;;;;26.61;44.90;101485.97;4958425;28;20034;-73
2021/06/15 10:13:03;;;;;;;4.22;1.00;;;;;;;26.30;45.20;101485.00;4974624;28;20037;-73
2021/06/15 10:15:30;;;;;;;8.15;1.30;;;;;;;26.05;45.15;101482.19;4970310;28;20431;-73
2021/06/15 10:17:57;;;;;;;4.50;1.20;;;;;;;25.87;46.75;101477.19;4978029;28;20089;-73
2021/06/15 10:20:26;;;;;;;8.25;1.52;;;;;;;25.77;47.19;101483.00;4978133;28;20039;-73
2021/06/15 10:22:53;;;;;;;5.50;1.08;;;;;;;26.08;47.38;101477.78;4983768;28;20054;-73
2021/06/15 10:25:21;;;;;;;4.82;1.27;;;;;;;26.25;46.97;101477.22;4969290;28;20059;-74
2021/06/15 10:27:49;;;;;;;4.72;1.20;;;;;;;26.15;45.79;101480.34;4975689;28;20026;-73
2021/06/15 10:30:17;;;;;;;6.18;1.25;;;;;;;26.19;47.06;101473.47;4970398;28;20488;-73
2021/06/15 10:32:54;;;;;;;6.22;1.35;;;;;;;25.93;47.51;101474.66;4970141;28;20078;-74
2021/06/15 10:35:31;;;;;;;6.05;1.20;;;;;;;26.03;46.67;101473.56;4973678;28;20041;-73
2021/06/15 10:37:57;;;;;;;7.50;1.45;;;;;;;25.90;47.59;101470.00;4972228;28;20054;-73
2021/06/15 10:40:22;;;;;;;4.78;1.00;;;;;;;25.73;46.82;101474.81;4948841;28;20033;-73
2021/06/15 10:43:43;;;;;;;7.38;1.20;;;;;;;25.77;46.95;101461.69;4971833;28;20037;-73
2021/06/15 10:46:11;;;;;;;5.00;1.25;;;;;;;26.14;47.30;101473.25;4906254;29;20040;-73
2021/06/15 10:48:45;;;;;;;4.57;1.52;;;;;;;26.44;45.82;101481.75;4955460;28;20543;-73
2021/06/15 10:51:26;;;;;;;6.20;1.25;;;;;;;26.56;46.53;101471.91;4960438;28;20034;-73
2021/06/15 10:53:54;;;;;;;4.35;1.08;;;;;;;26.68;47.15;101462.81;4973361;28;20097;-73
2021/06/15 10:56:22;;;;;;;5.97;1.10;;;;;;;27.02;44.92;101464.88;4972307;28;20109;-73
2021/06/15 10:58:57;;;;;;;6.30;1.08;;;;;;;27.48;45.79;101461.28;4980867;28;20049;-73
2021/06/15 11:01:31;;;;;;;5.88;1.20;;;;;;;27.39;43.62;101464.75;4963419;28;20117;-73
2021/06/15 11:03:58;;;;;;;5.75;1.10;;;;;;;27.29;43.04;101473.41;4942852;28;20097;-74
2021/06/15 11:06:26;;;;;;;8.80;1.00;;;;;;;26.97;43.98;101463.44;4974529;28;20031;-74
2021/06/15 11:09:16;;;;;;;6.88;1.10;;;;;;;26.80;43.99;101464.81;4973545;28;20050;-73
2021/06/15 11:11:50;;;;;;;4.47;1.00;;;;;;;27.17;45.79;101465.94;4961433;28;20110;-73
2021/06/15 11:14:21;;;;;;;6.20;1.00;;;;;;;27.25;44.60;101465.25;4968909;28;20037;-73
2021/06/15 11:16:47;;;;;;;4.28;1.00;;;;;;;27.08;44.33;101469.38;4962858;28;20068;-73
2021/06/15 11:19:13;;;;;;;4.68;1.05;;;;;;;27.08;45.25;101468.63;4969843;28;20379;-73
2021/06/15 11:21:53;;;;;;;5.47;1.00;;;;;;;26.41;46.09;101468.06;4970274;28;20031;-73
2021/06/15 11:24:25;;;;;;;4.95;1.15;;;;;;;26.49;46.47;101452.78;4938715;28;20077;-74
2021/06/15 11:26:56;;;;;;;4.88;0.93;;;;;;;26.89;44.66;101461.38;4967234;28;20114;-74
2021/06/15 11:29:25;;;;;;;7.57;0.90;;;;;;;27.19;44.89;101457.94;4960362;28;20043;-74
2021/06/15 11:31:51;;;;;;;6.25;1.27;;;;;;;27.05;42.59;101461.97;4961273;28;20444;-74
2021/06/15 11:34:17;;;;;;;3.30;1.00;;;;;;;27.12;42.07;101452.69;4964528;28;20058;-73
2021/06/15 11:36:52;;;;;;;6.38;1.08;;;;;;;26.72;42.63;101463.50;4966811;28;20118;-73
2021/06/15 11:39:29;;;;;;;6.00;1.20;;;;;;;26.38;44.56;101468.97;4962170;28;20035;-73